PWSweather.com
Personal Weather Stations
Station Observations
RRFWEATHER
Rail Road Flat, Rail Road Flat, CA 95248

Rail Road FlatRail Road Flat, CA 95248

Lat: 38.306238, Lon: -120.514548

Elevation: 2808

Station Type: Davis Vantage Pro2

http://www.railroadflat.org

Latest ConditionsUpdated 3:50:01 PM PST Sunday, Nov 18, 2018
Currently Today's Max Today's Min Today's Average
Temperature 65.2°F18.4°C 70.2°F21.2°C 51.1°F10.6°C 59.5°F15.3°C
Dew Point 28.4°F-2.0°C 28.4°F-2.0°C 18.9°F-7.3°C 23.1°F-4.9°C
Winds Calm Calm 3.5 mph -5.6 kmh - - 1.1 mph 1.8 kmh
Wind Gusts 1.2 mph1.9 kmh 9.2 mph14.8 kmh - -
Humidity 25% 36% 16% 25%
Pressure 29.99 in1015.6 mb 30.07 in1018.3 mb 29.99 in1015.6 mb -
Hour Temp Dew Point Humidity Winds Wind Gusts Pressure Precip Precip Rate Daily Precip Total
03:50 PM 65.2°F18.4°C 28.4°F-2.0°C 25% Calm Calm 1.2 mph1.9 kmh 29.99 in1015.6 mb - 0.00 in0.0 mm 0.00 in0.0 mm
03:45 PM 65.0°F18.3°C 27.3°F-2.6°C 24% 2.3 mph WSW3.7 kmh WSW 2.3 mph3.7 kmh 30.00 in1015.9 mb - 0.00 in0.0 mm 0.00 in0.0 mm
03:40 PM 65.2°F18.4°C 27.5°F-2.5°C 24% 2.3 mph SW3.7 kmh SW 4.6 mph7.4 kmh 30.00 in1015.9 mb - 0.00 in0.0 mm 0.00 in0.0 mm
03:35 PM 65.8°F18.8°C 26.9°F-2.8°C 23% 3.5 mph S5.6 kmh S 5.8 mph9.3 kmh 30.00 in1015.9 mb - 0.00 in0.0 mm 0.00 in0.0 mm
03:30 PM 66.6°F19.2°C 26.5°F-3.1°C 22% 2.3 mph S3.7 kmh S 5.8 mph9.3 kmh 30.00 in1015.9 mb - 0.00 in0.0 mm 0.00 in0.0 mm
03:25 PM 67.3°F19.6°C 24.8°F-4.0°C 20% 3.5 mph SE5.6 kmh SE 3.5 mph5.6 kmh 29.99 in1015.6 mb - 0.00 in0.0 mm 0.00 in0.0 mm
03:20 PM 67.9°F19.9°C 25.3°F-3.7°C 20% 2.3 mph S3.7 kmh S 8.1 mph13.0 kmh 29.99 in1015.6 mb - 0.00 in0.0 mm 0.00 in0.0 mm
03:15 PM 67.9°F19.9°C 25.3°F-3.7°C 20% 2.3 mph WNW3.7 kmh WNW 3.5 mph5.6 kmh 29.99 in1015.6 mb - 0.00 in0.0 mm 0.00 in0.0 mm
03:10 PM 68.2°F20.1°C 24.4°F-4.2°C 19% 2.3 mph S3.7 kmh S 3.5 mph5.6 kmh 29.99 in1015.6 mb - 0.00 in0.0 mm 0.00 in0.0 mm
03:00 PM 69.2°F20.7°C 25.1°F-3.8°C 19% 2.3 mph S3.7 kmh S 3.5 mph5.6 kmh 29.99 in1015.6 mb - 0.00 in0.0 mm 0.00 in0.0 mm
02:55 PM 69.0°F20.6°C 25.0°F-3.9°C 19% 1.2 mph SW1.9 kmh SW 2.3 mph3.7 kmh 29.99 in1015.6 mb - 0.00 in0.0 mm 0.00 in0.0 mm
02:50 PM 68.8°F20.4°C 24.8°F-4.0°C 19% 1.2 mph WSW1.9 kmh WSW 3.5 mph5.6 kmh 29.99 in1015.6 mb - 0.00 in0.0 mm 0.00 in0.0 mm
02:45 PM 69.0°F20.6°C 25.0°F-3.9°C 19% 2.3 mph S3.7 kmh S 3.5 mph5.6 kmh 30.00 in1015.9 mb - 0.00 in0.0 mm 0.00 in0.0 mm
02:40 PM 69.3°F20.7°C 25.2°F-3.8°C 19% 2.3 mph S3.7 kmh S 5.8 mph9.3 kmh 29.99 in1015.6 mb - 0.00 in0.0 mm 0.00 in0.0 mm
02:35 PM 69.1°F20.6°C 25.1°F-3.8°C 19% 2.3 mph SSW3.7 kmh SSW 3.5 mph5.6 kmh 29.99 in1015.6 mb - 0.00 in0.0 mm 0.00 in0.0 mm
02:30 PM 68.9°F20.5°C 24.9°F-3.9°C 19% 1.2 mph SSW1.9 kmh SSW 3.5 mph5.6 kmh 30.00 in1015.9 mb - 0.00 in0.0 mm 0.00 in0.0 mm
02:25 PM 68.7°F20.4°C 24.7°F-4.1°C 19% 2.3 mph S3.7 kmh S 2.3 mph3.7 kmh 30.00 in1015.9 mb - 0.00 in0.0 mm 0.00 in0.0 mm
02:20 PM 69.0°F20.6°C 25.0°F-3.9°C 19% 3.5 mph S5.6 kmh S 5.8 mph9.3 kmh 30.00 in1015.9 mb - 0.00 in0.0 mm 0.00 in0.0 mm
02:15 PM 68.9°F20.5°C 24.9°F-3.9°C 19% 2.3 mph S3.7 kmh S 3.5 mph5.6 kmh 30.00 in1015.9 mb - 0.00 in0.0 mm 0.00 in0.0 mm
02:10 PM 69.1°F20.6°C 25.0°F-3.9°C 19% 2.3 mph SSW3.7 kmh SSW 5.8 mph9.3 kmh 30.00 in1015.9 mb - 0.00 in0.0 mm 0.00 in0.0 mm
02:00 PM 69.3°F20.7°C 26.5°F-3.1°C 20% 3.5 mph S5.6 kmh S 5.8 mph9.3 kmh 30.00 in1015.9 mb - 0.00 in0.0 mm 0.00 in0.0 mm
01:55 PM 69.4°F20.8°C 25.4°F-3.7°C 19% 2.3 mph SSW3.7 kmh SSW 6.9 mph11.1 kmh 30.00 in1015.9 mb - 0.00 in0.0 mm 0.00 in0.0 mm
01:50 PM 69.0°F20.6°C 26.2°F-3.2°C 20% 2.3 mph S3.7 kmh S 6.9 mph11.1 kmh 30.00 in1015.9 mb - 0.00 in0.0 mm 0.00 in0.0 mm
01:45 PM 68.5°F20.3°C 24.6°F-4.1°C 19% 2.3 mph S3.7 kmh S 3.5 mph5.6 kmh 30.00 in1015.9 mb - 0.00 in0.0 mm 0.00 in0.0 mm
01:40 PM 68.8°F20.4°C 24.8°F-4.0°C 19% 3.5 mph S5.6 kmh S 8.1 mph13.0 kmh 30.00 in1015.9 mb - 0.00 in0.0 mm 0.00 in0.0 mm
01:35 PM 69.0°F20.6°C 25.0°F-3.9°C 19% 1.2 mph SW1.9 kmh SW 3.5 mph5.6 kmh 30.00 in1015.9 mb - 0.00 in0.0 mm 0.00 in0.0 mm
01:30 PM 69.0°F20.6°C 25.0°F-3.9°C 19% 2.3 mph WSW3.7 kmh WSW 5.8 mph9.3 kmh 30.00 in1015.9 mb - 0.00 in0.0 mm 0.00 in0.0 mm
01:25 PM 68.9°F20.5°C 24.9°F-3.9°C 19% 2.3 mph SW3.7 kmh SW 3.5 mph5.6 kmh 30.00 in1015.9 mb - 0.00 in0.0 mm 0.00 in0.0 mm
01:20 PM 69.1°F20.6°C 25.1°F-3.8°C 19% 2.3 mph S3.7 kmh S 4.6 mph7.4 kmh 30.00 in1015.9 mb - 0.00 in0.0 mm 0.00 in0.0 mm
01:15 PM 69.2°F20.7°C 25.2°F-3.8°C 19% 3.5 mph S5.6 kmh S 3.5 mph5.6 kmh 30.00 in1015.9 mb - 0.00 in0.0 mm 0.00 in0.0 mm
01:10 PM 69.1°F20.6°C 25.1°F-3.8°C 19% 2.3 mph SSW3.7 kmh SSW 8.1 mph13.0 kmh 30.00 in1015.9 mb - 0.00 in0.0 mm 0.00 in0.0 mm
01:00 PM 69.3°F20.7°C 23.9°F-4.5°C 18% 2.3 mph WSW3.7 kmh WSW 3.5 mph5.6 kmh 30.00 in1015.9 mb - 0.00 in0.0 mm 0.00 in0.0 mm
12:55 PM 69.1°F20.6°C 25.1°F-3.8°C 19% 2.3 mph S3.7 kmh S 3.5 mph5.6 kmh 30.00 in1015.9 mb - 0.00 in0.0 mm 0.00 in0.0 mm
12:50 PM 69.2°F20.7°C 23.8°F-4.6°C 18% 2.3 mph WSW3.7 kmh WSW 4.6 mph7.4 kmh 30.01 in1016.3 mb - 0.00 in0.0 mm 0.00 in0.0 mm
12:45 PM 69.2°F20.7°C 23.8°F-4.6°C 18% 3.5 mph W5.6 kmh W 9.2 mph14.8 kmh 30.01 in1016.3 mb - 0.00 in0.0 mm 0.00 in0.0 mm
12:40 PM 69.3°F20.7°C 23.9°F-4.5°C 18% 3.5 mph SE5.6 kmh SE 3.5 mph5.6 kmh 30.01 in1016.3 mb - 0.00 in0.0 mm 0.00 in0.0 mm
12:35 PM 69.4°F20.8°C 24.0°F-4.4°C 18% 3.5 mph S5.6 kmh S 6.9 mph11.1 kmh 30.01 in1016.3 mb - 0.00 in0.0 mm 0.00 in0.0 mm
12:30 PM 69.3°F20.7°C 24.0°F-4.4°C 18% 3.5 mph S5.6 kmh S 5.8 mph9.3 kmh 30.01 in1016.3 mb - 0.00 in0.0 mm 0.00 in0.0 mm
12:25 PM 70.0°F21.1°C 23.1°F-4.9°C 17% 2.3 mph S3.7 kmh S 4.6 mph7.4 kmh 30.02 in1016.6 mb - 0.00 in0.0 mm 0.00 in0.0 mm
12:20 PM 69.7°F20.9°C 22.9°F-5.1°C 17% 2.3 mph WSW3.7 kmh WSW 3.5 mph5.6 kmh 30.02 in1016.6 mb - 0.00 in0.0 mm 0.00 in0.0 mm
12:15 PM 70.2°F21.2°C 23.3°F-4.8°C 17% 2.3 mph S3.7 kmh S 6.9 mph11.1 kmh 30.02 in1016.6 mb - 0.00 in0.0 mm 0.00 in0.0 mm
12:10 PM 70.1°F21.2°C 23.2°F-4.9°C 17% 2.3 mph S3.7 kmh S 3.5 mph5.6 kmh 30.02 in1016.6 mb - 0.00 in0.0 mm 0.00 in0.0 mm
12:00 PM 69.9°F21.1°C 21.6°F-5.8°C 16% 2.3 mph SW3.7 kmh SW 2.3 mph3.7 kmh 30.03 in1016.9 mb - 0.00 in0.0 mm 0.00 in0.0 mm
11:55 AM 69.4°F20.8°C 22.6°F-5.2°C 17% 2.3 mph SSW3.7 kmh SSW 3.5 mph5.6 kmh 30.03 in1016.9 mb - 0.00 in0.0 mm 0.00 in0.0 mm
11:50 AM 69.4°F20.8°C 21.2°F-6.0°C 16% 3.5 mph SE5.6 kmh SE 4.6 mph7.4 kmh 30.03 in1016.9 mb - 0.00 in0.0 mm 0.00 in0.0 mm
11:45 AM 69.9°F21.1°C 21.6°F-5.8°C 16% 1.2 mph S1.9 kmh S 4.6 mph7.4 kmh 30.04 in1017.3 mb - 0.00 in0.0 mm 0.00 in0.0 mm
11:40 AM 69.7°F20.9°C 21.5°F-5.8°C 16% 2.3 mph SSW3.7 kmh SSW 3.5 mph5.6 kmh 30.04 in1017.3 mb - 0.00 in0.0 mm 0.00 in0.0 mm
11:35 AM 69.4°F20.8°C 22.6°F-5.2°C 17% 1.2 mph SE1.9 kmh SE 3.5 mph5.6 kmh 30.04 in1017.3 mb - 0.00 in0.0 mm 0.00 in0.0 mm
11:30 AM 69.1°F20.6°C 21.0°F-6.1°C 16% 1.2 mph SSW1.9 kmh SSW 2.3 mph3.7 kmh 30.05 in1017.6 mb - 0.00 in0.0 mm 0.00 in0.0 mm
11:25 AM 69.2°F20.7°C 22.5°F-5.3°C 17% 2.3 mph SW3.7 kmh SW 3.5 mph5.6 kmh 30.05 in1017.6 mb - 0.00 in0.0 mm 0.00 in0.0 mm
11:20 AM 69.0°F20.6°C 20.9°F-6.2°C 16% 1.2 mph SW1.9 kmh SW 2.3 mph3.7 kmh 30.05 in1017.6 mb - 0.00 in0.0 mm 0.00 in0.0 mm
11:15 AM 68.7°F20.4°C 22.1°F-5.5°C 17% 1.2 mph WSW1.9 kmh WSW 2.3 mph3.7 kmh 30.05 in1017.6 mb - 0.00 in0.0 mm 0.00 in0.0 mm
11:10 AM 68.6°F20.3°C 22.0°F-5.6°C 17% 2.3 mph SE3.7 kmh SE 4.6 mph7.4 kmh 30.05 in1017.6 mb - 0.00 in0.0 mm 0.00 in0.0 mm
11:00 AM 68.1°F20.1°C 23.0°F-5.0°C 18% 1.2 mph SE1.9 kmh SE 4.6 mph7.4 kmh 30.06 in1017.9 mb - 0.00 in0.0 mm 0.00 in0.0 mm
10:55 AM 67.9°F19.9°C 22.8°F-5.1°C 18% 2.3 mph SE3.7 kmh SE 3.5 mph5.6 kmh 30.05 in1017.6 mb - 0.00 in0.0 mm 0.00 in0.0 mm
10:50 AM 68.1°F20.1°C 21.6°F-5.8°C 17% 2.3 mph SSE3.7 kmh SSE 4.6 mph7.4 kmh 30.06 in1017.9 mb - 0.00 in0.0 mm 0.00 in0.0 mm
10:45 AM 68.1°F20.1°C 21.6°F-5.8°C 17% 2.3 mph SE3.7 kmh SE 3.5 mph5.6 kmh 30.06 in1017.9 mb - 0.00 in0.0 mm 0.00 in0.0 mm
10:40 AM 67.5°F19.7°C 22.4°F-5.3°C 18% 1.2 mph SE1.9 kmh SE 2.3 mph3.7 kmh 30.06 in1017.9 mb - 0.00 in0.0 mm 0.00 in0.0 mm
10:35 AM 66.9°F19.4°C 23.2°F-4.9°C 19% 2.3 mph S3.7 kmh S 4.6 mph7.4 kmh 30.07 in1018.3 mb - 0.00 in0.0 mm 0.00 in0.0 mm
10:30 AM 66.3°F19.1°C 22.8°F-5.1°C 19% 1.2 mph S1.9 kmh S 3.5 mph5.6 kmh 30.07 in1018.3 mb - 0.00 in0.0 mm 0.00 in0.0 mm
10:25 AM 65.8°F18.8°C 22.4°F-5.3°C 19% 2.3 mph SE3.7 kmh SE 3.5 mph5.6 kmh 30.07 in1018.3 mb - 0.00 in0.0 mm 0.00 in0.0 mm
10:20 AM 65.6°F18.7°C 22.2°F-5.4°C 19% 3.5 mph SSE5.6 kmh SSE 4.6 mph7.4 kmh 30.07 in1018.3 mb - 0.00 in0.0 mm 0.00 in0.0 mm
10:15 AM 65.3°F18.5°C 23.1°F-4.9°C 20% 1.2 mph S1.9 kmh S 2.3 mph3.7 kmh 30.07 in1018.3 mb - 0.00 in0.0 mm 0.00 in0.0 mm
10:10 AM 65.4°F18.6°C 22.0°F-5.6°C 19% 2.3 mph S3.7 kmh S 4.6 mph7.4 kmh 30.07 in1018.3 mb - 0.00 in0.0 mm 0.00 in0.0 mm
10:00 AM 65.6°F18.7°C 22.2°F-5.4°C 19% 1.2 mph SSW1.9 kmh SSW 3.5 mph5.6 kmh 30.07 in1018.3 mb - 0.00 in0.0 mm 0.00 in0.0 mm
09:55 AM 65.3°F18.5°C 22.0°F-5.6°C 19% 1.2 mph SSW1.9 kmh SSW 3.5 mph5.6 kmh 30.07 in1018.3 mb - 0.00 in0.0 mm 0.00 in0.0 mm
09:50 AM 65.0°F18.3°C 22.9°F-5.1°C 20% 2.3 mph SE3.7 kmh SE 3.5 mph5.6 kmh 30.07 in1018.3 mb - 0.00 in0.0 mm 0.00 in0.0 mm
09:45 AM 65.0°F18.3°C 21.7°F-5.7°C 19% 2.3 mph SSE3.7 kmh SSE 3.5 mph5.6 kmh 30.07 in1018.3 mb - 0.00 in0.0 mm 0.00 in0.0 mm
09:40 AM 64.9°F18.3°C 21.6°F-5.8°C 19% 1.2 mph SSW1.9 kmh SSW 2.3 mph3.7 kmh 30.07 in1018.3 mb - 0.00 in0.0 mm 0.00 in0.0 mm
09:35 AM 64.6°F18.1°C 21.4°F-5.9°C 19% Calm Calm 3.5 mph5.6 kmh 30.07 in1018.3 mb - 0.00 in0.0 mm 0.00 in0.0 mm
09:30 AM 64.5°F18.1°C 22.5°F-5.3°C 20% 1.2 mph S1.9 kmh S 2.3 mph3.7 kmh 30.07 in1018.3 mb - 0.00 in0.0 mm 0.00 in0.0 mm
09:25 AM 64.8°F18.2°C 22.8°F-5.1°C 20% 1.2 mph S1.9 kmh S 3.5 mph5.6 kmh 30.07 in1018.3 mb - 0.00 in0.0 mm 0.00 in0.0 mm
09:20 AM 65.1°F18.4°C 23.0°F-5.0°C 20% Calm Calm 2.3 mph3.7 kmh 30.07 in1018.3 mb - 0.00 in0.0 mm 0.00 in0.0 mm
09:15 AM 65.9°F18.8°C 21.1°F-6.1°C 18% Calm Calm -- 30.07 in1018.3 mb - 0.00 in0.0 mm 0.00 in0.0 mm
09:10 AM 66.7°F19.3°C 24.3°F-4.3°C 20% Calm Calm -- 30.07 in1018.3 mb - 0.00 in0.0 mm 0.00 in0.0 mm
09:00 AM 65.8°F18.8°C 25.9°F-3.4°C 22% Calm Calm -- 30.07 in1018.3 mb - 0.00 in0.0 mm 0.00 in0.0 mm
08:55 AM 64.9°F18.3°C 27.2°F-2.7°C 24% Calm Calm -- 30.07 in1018.3 mb - 0.00 in0.0 mm 0.00 in0.0 mm
08:50 AM 64.1°F17.8°C 25.5°F-3.6°C 23% Calm Calm -- 30.07 in1018.3 mb - 0.00 in0.0 mm 0.00 in0.0 mm
08:45 AM 63.3°F17.4°C 25.9°F-3.4°C 24% Calm Calm -- 30.07 in1018.3 mb - 0.00 in0.0 mm 0.00 in0.0 mm
08:40 AM 62.3°F16.8°C 26.0°F-3.3°C 25% Calm Calm -- 30.07 in1018.3 mb - 0.00 in0.0 mm 0.00 in0.0 mm
08:35 AM 61.2°F16.2°C 26.0°F-3.3°C 26% Calm Calm -- 30.07 in1018.3 mb - 0.00 in0.0 mm 0.00 in0.0 mm
08:30 AM 60.2°F15.7°C 24.2°F-4.3°C 25% Calm Calm -- 30.07 in1018.3 mb - 0.00 in0.0 mm 0.00 in0.0 mm
08:25 AM 59.5°F15.3°C 24.5°F-4.2°C 26% Calm Calm -- 30.06 in1017.9 mb - 0.00 in0.0 mm 0.00 in0.0 mm
08:20 AM 58.6°F14.8°C 23.8°F-4.6°C 26% Calm Calm -- 30.06 in1017.9 mb - 0.00 in0.0 mm 0.00 in0.0 mm
08:15 AM 57.9°F14.4°C 23.1°F-4.9°C 26% Calm Calm -- 30.07 in1018.3 mb - 0.00 in0.0 mm 0.00 in0.0 mm
08:10 AM 57.1°F13.9°C 22.5°F-5.3°C 26% Calm Calm -- 30.06 in1017.9 mb - 0.00 in0.0 mm 0.00 in0.0 mm
08:00 AM 55.5°F13.1°C 22.0°F-5.6°C 27% Calm Calm -- 30.06 in1017.9 mb - 0.00 in0.0 mm 0.00 in0.0 mm
07:55 AM 54.8°F12.7°C 21.4°F-5.9°C 27% Calm Calm -- 30.06 in1017.9 mb - 0.00 in0.0 mm 0.00 in0.0 mm
07:50 AM 54.2°F12.3°C 21.7°F-5.7°C 28% Calm Calm -- 30.06 in1017.9 mb - 0.00 in0.0 mm 0.00 in0.0 mm
07:45 AM 53.7°F12.1°C 21.3°F-5.9°C 28% Calm Calm -- 30.06 in1017.9 mb - 0.00 in0.0 mm 0.00 in0.0 mm
07:40 AM 53.3°F11.8°C 21.0°F-6.1°C 28% Calm Calm -- 30.05 in1017.6 mb - 0.00 in0.0 mm 0.00 in0.0 mm
07:35 AM 53.0°F11.7°C 20.7°F-6.3°C 28% Calm Calm -- 30.05 in1017.6 mb - 0.00 in0.0 mm 0.00 in0.0 mm
07:30 AM 52.7°F11.5°C 20.5°F-6.4°C 28% Calm Calm -- 30.05 in1017.6 mb - 0.00 in0.0 mm 0.00 in0.0 mm
07:25 AM 52.5°F11.4°C 20.3°F-6.5°C 28% Calm Calm -- 30.05 in1017.6 mb - 0.00 in0.0 mm 0.00 in0.0 mm
07:20 AM 52.3°F11.3°C 20.1°F-6.6°C 28% Calm Calm -- 30.05 in1017.6 mb - 0.00 in0.0 mm 0.00 in0.0 mm
07:15 AM 52.0°F11.1°C 19.9°F-6.7°C 28% Calm Calm -- 30.04 in1017.3 mb - 0.00 in0.0 mm 0.00 in0.0 mm
07:10 AM 51.9°F11.1°C 19.8°F-6.8°C 28% Calm Calm -- 30.04 in1017.3 mb - 0.00 in0.0 mm 0.00 in0.0 mm
07:00 AM 51.8°F11.0°C 19.7°F-6.8°C 28% Calm Calm -- 30.04 in1017.3 mb - 0.00 in0.0 mm 0.00 in0.0 mm
06:55 AM 51.9°F11.1°C 19.8°F-6.8°C 28% Calm Calm -- 30.04 in1017.3 mb - 0.00 in0.0 mm 0.00 in0.0 mm
06:50 AM 52.0°F11.1°C 19.9°F-6.7°C 28% Calm Calm -- 30.04 in1017.3 mb - 0.00 in0.0 mm 0.00 in0.0 mm
06:45 AM 52.1°F11.2°C 19.1°F-7.2°C 27% Calm Calm -- 30.04 in1017.3 mb - 0.00 in0.0 mm 0.00 in0.0 mm
06:40 AM 52.1°F11.2°C 19.1°F-7.2°C 27% Calm Calm -- 30.04 in1017.3 mb - 0.00 in0.0 mm 0.00 in0.0 mm
06:35 AM 52.2°F11.2°C 19.2°F-7.1°C 27% Calm Calm -- 30.04 in1017.3 mb - 0.00 in0.0 mm 0.00 in0.0 mm
06:30 AM 52.2°F11.2°C 19.2°F-7.1°C 27% Calm Calm -- 30.04 in1017.3 mb - 0.00 in0.0 mm 0.00 in0.0 mm
06:25 AM 52.3°F11.3°C 19.3°F-7.1°C 27% Calm Calm -- 30.03 in1016.9 mb - 0.00 in0.0 mm 0.00 in0.0 mm
06:20 AM 52.3°F11.3°C 19.3°F-7.1°C 27% Calm Calm -- 30.03 in1016.9 mb - 0.00 in0.0 mm 0.00 in0.0 mm
06:15 AM 52.3°F11.3°C 19.3°F-7.1°C 27% Calm Calm -- 30.04 in1017.3 mb - 0.00 in0.0 mm 0.00 in0.0 mm
06:10 AM 52.3°F11.3°C 19.2°F-7.1°C 27% Calm Calm -- 30.04 in1017.3 mb - 0.00 in0.0 mm 0.00 in0.0 mm
06:00 AM 52.1°F11.2°C 19.1°F-7.2°C 27% Calm Calm -- 30.03 in1016.9 mb - 0.00 in0.0 mm 0.00 in0.0 mm
05:55 AM 51.9°F11.1°C 18.9°F-7.3°C 27% Calm Calm -- 30.03 in1016.9 mb - 0.00 in0.0 mm 0.00 in0.0 mm
05:50 AM 51.6°F10.9°C 19.5°F-6.9°C 28% Calm Calm -- 30.03 in1016.9 mb - 0.00 in0.0 mm 0.00 in0.0 mm
05:45 AM 51.3°F10.7°C 19.2°F-7.1°C 28% Calm Calm -- 30.03 in1016.9 mb - 0.00 in0.0 mm 0.00 in0.0 mm
05:35 AM 51.2°F10.7°C 20.0°F-6.7°C 29% Calm Calm -- 30.03 in1016.9 mb - 0.00 in0.0 mm 0.00 in0.0 mm
05:30 AM 51.3°F10.7°C 20.1°F-6.6°C 29% Calm Calm -- 30.03 in1016.9 mb - 0.00 in0.0 mm 0.00 in0.0 mm
05:25 AM 51.6°F10.9°C 20.3°F-6.5°C 29% Calm Calm -- 30.03 in1016.9 mb - 0.00 in0.0 mm 0.00 in0.0 mm
05:20 AM 51.8°F11.0°C 20.5°F-6.4°C 29% Calm Calm -- 30.02 in1016.6 mb - 0.00 in0.0 mm 0.00 in0.0 mm
05:15 AM 51.9°F11.1°C 19.8°F-6.8°C 28% Calm Calm -- 30.02 in1016.6 mb - 0.00 in0.0 mm 0.00 in0.0 mm
05:10 AM 51.9°F11.1°C 19.8°F-6.8°C 28% Calm Calm -- 30.02 in1016.6 mb - 0.00 in0.0 mm 0.00 in0.0 mm
05:00 AM 52.0°F11.1°C 20.7°F-6.3°C 29% Calm Calm -- 30.02 in1016.6 mb - 0.00 in0.0 mm 0.00 in0.0 mm
04:55 AM 52.0°F11.1°C 20.7°F-6.3°C 29% 1.2 mph WNW1.9 kmh WNW 1.2 mph1.9 kmh 30.02 in1016.6 mb - 0.00 in0.0 mm 0.00 in0.0 mm
04:50 AM 52.2°F11.2°C 20.8°F-6.2°C 29% 1.2 mph WNW1.9 kmh WNW 2.3 mph3.7 kmh 30.02 in1016.6 mb - 0.00 in0.0 mm 0.00 in0.0 mm
04:45 AM 52.4°F11.3°C 21.0°F-6.1°C 29% 1.2 mph WNW1.9 kmh WNW 2.3 mph3.7 kmh 30.02 in1016.6 mb - 0.00 in0.0 mm 0.00 in0.0 mm
04:40 AM 52.5°F11.4°C 21.1°F-6.1°C 29% 1.2 mph WNW1.9 kmh WNW 2.3 mph3.7 kmh 30.02 in1016.6 mb - 0.00 in0.0 mm 0.00 in0.0 mm
04:35 AM 52.5°F11.4°C 21.1°F-6.1°C 29% 1.2 mph WNW1.9 kmh WNW 1.2 mph1.9 kmh 30.02 in1016.6 mb - 0.00 in0.0 mm 0.00 in0.0 mm
04:30 AM 52.5°F11.4°C 21.1°F-6.1°C 29% 1.2 mph WNW1.9 kmh WNW 2.3 mph3.7 kmh 30.02 in1016.6 mb - 0.00 in0.0 mm 0.00 in0.0 mm
04:25 AM 52.4°F11.3°C 21.9°F-5.6°C 30% 1.2 mph WNW1.9 kmh WNW 2.3 mph3.7 kmh 30.02 in1016.6 mb - 0.00 in0.0 mm 0.00 in0.0 mm
04:20 AM 52.4°F11.3°C 21.8°F-5.7°C 30% 1.2 mph WNW1.9 kmh WNW 2.3 mph3.7 kmh 30.02 in1016.6 mb - 0.00 in0.0 mm 0.00 in0.0 mm
04:15 AM 52.6°F11.4°C 22.0°F-5.6°C 30% 1.2 mph WNW1.9 kmh WNW 2.3 mph3.7 kmh 30.02 in1016.6 mb - 0.00 in0.0 mm 0.00 in0.0 mm
04:10 AM 52.6°F11.4°C 22.8°F-5.1°C 31% 1.2 mph WNW1.9 kmh WNW 2.3 mph3.7 kmh 30.02 in1016.6 mb - 0.00 in0.0 mm 0.00 in0.0 mm
04:00 AM 52.5°F11.4°C 22.7°F-5.2°C 31% 1.2 mph WNW1.9 kmh WNW 2.3 mph3.7 kmh 30.02 in1016.6 mb - 0.00 in0.0 mm 0.00 in0.0 mm
03:55 AM 52.4°F11.3°C 23.3°F-4.8°C 32% 1.2 mph WNW1.9 kmh WNW 2.3 mph3.7 kmh 30.02 in1016.6 mb - 0.00 in0.0 mm 0.00 in0.0 mm
03:50 AM 52.3°F11.3°C 23.3°F-4.8°C 32% 1.2 mph WNW1.9 kmh WNW 2.3 mph3.7 kmh 30.02 in1016.6 mb - 0.00 in0.0 mm 0.00 in0.0 mm
03:45 AM 52.1°F11.2°C 23.1°F-4.9°C 32% 1.2 mph WNW1.9 kmh WNW 2.3 mph3.7 kmh 30.02 in1016.6 mb - 0.00 in0.0 mm 0.00 in0.0 mm
03:40 AM 51.9°F11.1°C 23.7°F-4.6°C 33% 1.2 mph WNW1.9 kmh WNW 1.2 mph1.9 kmh 30.02 in1016.6 mb - 0.00 in0.0 mm 0.00 in0.0 mm
03:35 AM 51.8°F11.0°C 23.6°F-4.7°C 33% 2.3 mph W3.7 kmh W 2.3 mph3.7 kmh 30.02 in1016.6 mb - 0.00 in0.0 mm 0.00 in0.0 mm
03:30 AM 51.9°F11.1°C 23.7°F-4.6°C 33% 1.2 mph W1.9 kmh W 2.3 mph3.7 kmh 30.02 in1016.6 mb - 0.00 in0.0 mm 0.00 in0.0 mm
03:25 AM 52.0°F11.1°C 23.7°F-4.6°C 33% 1.2 mph W1.9 kmh W 2.3 mph3.7 kmh 30.02 in1016.6 mb - 0.00 in0.0 mm 0.00 in0.0 mm
03:20 AM 52.0°F11.1°C 23.8°F-4.6°C 33% 1.2 mph W1.9 kmh W 2.3 mph3.7 kmh 30.02 in1016.6 mb - 0.00 in0.0 mm 0.00 in0.0 mm
03:15 AM 52.1°F11.2°C 23.8°F-4.6°C 33% Calm Calm 3.5 mph5.6 kmh 30.02 in1016.6 mb - 0.00 in0.0 mm 0.00 in0.0 mm
03:10 AM 52.1°F11.2°C 23.8°F-4.6°C 33% Calm Calm -- 30.02 in1016.6 mb - 0.00 in0.0 mm 0.00 in0.0 mm
03:00 AM 51.8°F11.0°C 23.6°F-4.7°C 33% Calm Calm -- 30.02 in1016.6 mb - 0.00 in0.0 mm 0.00 in0.0 mm
02:55 AM 51.8°F11.0°C 23.6°F-4.7°C 33% Calm Calm -- 30.01 in1016.3 mb - 0.00 in0.0 mm 0.00 in0.0 mm
02:50 AM 51.7°F10.9°C 23.5°F-4.7°C 33% Calm Calm -- 30.01 in1016.3 mb - 0.00 in0.0 mm 0.00 in0.0 mm
02:45 AM 51.6°F10.9°C 23.4°F-4.8°C 33% Calm Calm -- 30.01 in1016.3 mb - 0.00 in0.0 mm 0.00 in0.0 mm
02:40 AM 51.5°F10.8°C 24.0°F-4.4°C 34% Calm Calm -- 30.01 in1016.3 mb - 0.00 in0.0 mm 0.00 in0.0 mm
02:35 AM 51.5°F10.8°C 24.0°F-4.4°C 34% Calm Calm -- 30.01 in1016.3 mb - 0.00 in0.0 mm 0.00 in0.0 mm
02:30 AM 51.5°F10.8°C 24.1°F-4.4°C 34% Calm Calm -- 30.01 in1016.3 mb - 0.00 in0.0 mm 0.00 in0.0 mm
02:25 AM 51.6°F10.9°C 24.1°F-4.4°C 34% Calm Calm -- 30.01 in1016.3 mb - 0.00 in0.0 mm 0.00 in0.0 mm
02:20 AM 51.8°F11.0°C 24.3°F-4.3°C 34% Calm Calm -- 30.01 in1016.3 mb - 0.00 in0.0 mm 0.00 in0.0 mm
02:15 AM 51.8°F11.0°C 24.3°F-4.3°C 34% Calm Calm -- 30.01 in1016.3 mb - 0.00 in0.0 mm 0.00 in0.0 mm
02:10 AM 51.8°F11.0°C 24.3°F-4.3°C 34% 1.2 mph W1.9 kmh W 1.2 mph1.9 kmh 30.01 in1016.3 mb - 0.00 in0.0 mm 0.00 in0.0 mm
02:00 AM 51.5°F10.8°C 24.7°F-4.1°C 35% Calm Calm -- 30.02 in1016.6 mb - 0.00 in0.0 mm 0.00 in0.0 mm
01:55 AM 51.4°F10.8°C 24.7°F-4.1°C 35% 1.2 mph W1.9 kmh W 1.2 mph1.9 kmh 30.02 in1016.6 mb - 0.00 in0.0 mm 0.00 in0.0 mm
01:50 AM 51.4°F10.8°C 24.6°F-4.1°C 35% 1.2 mph W1.9 kmh W 2.3 mph3.7 kmh 30.02 in1016.6 mb - 0.00 in0.0 mm 0.00 in0.0 mm
01:45 AM 51.4°F10.8°C 24.6°F-4.1°C 35% 1.2 mph W1.9 kmh W 2.3 mph3.7 kmh 30.02 in1016.6 mb - 0.00 in0.0 mm 0.00 in0.0 mm
01:40 AM 51.4°F10.8°C 24.6°F-4.1°C 35% 1.2 mph W1.9 kmh W 2.3 mph3.7 kmh 30.02 in1016.6 mb - 0.00 in0.0 mm 0.00 in0.0 mm
01:35 AM 51.4°F10.8°C 24.6°F-4.1°C 35% 1.2 mph W1.9 kmh W 1.2 mph1.9 kmh 30.02 in1016.6 mb - 0.00 in0.0 mm 0.00 in0.0 mm
01:30 AM 51.5°F10.8°C 24.7°F-4.1°C 35% 1.2 mph W1.9 kmh W 2.3 mph3.7 kmh 30.02 in1016.6 mb - 0.00 in0.0 mm 0.00 in0.0 mm
01:25 AM 51.6°F10.9°C 24.8°F-4.0°C 35% 1.2 mph W1.9 kmh W 2.3 mph3.7 kmh 30.02 in1016.6 mb - 0.00 in0.0 mm 0.00 in0.0 mm
01:20 AM 51.7°F10.9°C 24.9°F-3.9°C 35% 1.2 mph W1.9 kmh W 2.3 mph3.7 kmh 30.02 in1016.6 mb - 0.00 in0.0 mm 0.00 in0.0 mm
01:15 AM 51.7°F10.9°C 24.9°F-3.9°C 35% 1.2 mph W1.9 kmh W 1.2 mph1.9 kmh 30.02 in1016.6 mb - 0.00 in0.0 mm 0.00 in0.0 mm
01:10 AM 51.6°F10.9°C 24.8°F-4.0°C 35% 1.2 mph W1.9 kmh W 2.3 mph3.7 kmh 30.01 in1016.3 mb - 0.00 in0.0 mm 0.00 in0.0 mm
01:00 AM 51.7°F10.9°C 24.9°F-3.9°C 35% 1.2 mph W1.9 kmh W 2.3 mph3.7 kmh 30.01 in1016.3 mb - 0.00 in0.0 mm 0.00 in0.0 mm
12:55 AM 51.7°F10.9°C 24.2°F-4.3°C 34% Calm Calm 1.2 mph1.9 kmh 30.01 in1016.3 mb - 0.00 in0.0 mm 0.00 in0.0 mm
12:50 AM 51.7°F10.9°C 24.2°F-4.3°C 34% Calm Calm -- 30.01 in1016.3 mb - 0.00 in0.0 mm 0.00 in0.0 mm
12:45 AM 51.7°F10.9°C 24.9°F-3.9°C 35% Calm Calm -- 30.01 in1016.3 mb - 0.00 in0.0 mm 0.00 in0.0 mm
12:40 AM 51.6°F10.9°C 24.8°F-4.0°C 35% Calm Calm -- 30.01 in1016.3 mb - 0.00 in0.0 mm 0.00 in0.0 mm
12:35 AM 51.6°F10.9°C 24.8°F-4.0°C 35% Calm Calm -- 30.01 in1016.3 mb - 0.00 in0.0 mm 0.00 in0.0 mm
12:30 AM 51.5°F10.8°C 24.7°F-4.1°C 35% Calm Calm -- 30.01 in1016.3 mb - 0.00 in0.0 mm 0.00 in0.0 mm
12:25 AM 51.4°F10.8°C 24.6°F-4.1°C 35% Calm Calm -- 30.01 in1016.3 mb - 0.00 in0.0 mm 0.00 in0.0 mm
12:20 AM 51.2°F10.7°C 24.5°F-4.2°C 35% Calm Calm -- 30.01 in1016.3 mb - 0.00 in0.0 mm 0.00 in0.0 mm
12:15 AM 51.1°F10.6°C 24.4°F-4.2°C 35% Calm Calm -- 30.01 in1016.3 mb - 0.00 in0.0 mm 0.00 in0.0 mm
12:10 AM 51.2°F10.7°C 25.1°F-3.8°C 36% Calm Calm -- 30.01 in1016.3 mb - 0.00 in0.0 mm 0.00 in0.0 mm
12:00 AM 51.5°F10.8°C 25.4°F-3.7°C 36% 1.2 mph W1.9 kmh W 1.2 mph1.9 kmh 30.01 in1016.3 mb - 0.00 in0.0 mm 0.00 in0.0 mm